Roby, Illinois
Current Conditions -  °F | °C
As of 10:52 PM on Sunday 19 Oct 2014 (Local Time) from KSPI Reporting Station
Overcast Overcast  
Wind Chill: 56°   Ceiling: 9000
Heat Index: 56°   Visibility: 10mi
Dew Point: 45°   Wind: 9mph
Humidity: 67%   Direction: 200°SSW
Pressure: 29.99"   Gusts: NA
Location:  39.766°N, 89.4108°W
Report Text: KSPI 200352Z 20008KT 10SM OVC090 13/07 A2999 RMK AO2 SLP157 T01330072
Loading
Personal Weather Stations






























Interactive Weather Map New forecast layout! Learn more

10-Day Weather Forecast

Advertisements
Track Severe Weather on mobile